createdAt,value
2019-03-30T00:02:43.877Z,6.27
2019-03-30T00:06:48.291Z,5.97
2019-03-30T00:10:52.704Z,7.83
2019-03-30T00:14:57.169Z,5.57
2019-03-30T00:19:01.463Z,6.40
2019-03-30T00:23:05.605Z,6.03
2019-03-30T00:27:09.772Z,5.77
2019-03-30T00:31:13.926Z,4.47
2019-03-30T00:35:18.261Z,8.90
2019-03-30T00:39:22.563Z,5.27
2019-03-30T00:43:26.770Z,6.83
2019-03-30T00:47:31.126Z,6.97
2019-03-30T00:51:35.424Z,5.87
2019-03-30T00:55:39.726Z,5.07
2019-03-30T00:59:43.938Z,7.27
2019-03-30T01:03:48.296Z,5.70
2019-03-30T01:07:52.608Z,4.03
2019-03-30T01:11:56.881Z,5.23
2019-03-30T01:16:01.261Z,5.97
2019-03-30T01:20:06.100Z,6.10
2019-03-30T01:24:10.428Z,5.23
2019-03-30T01:28:15.728Z,4.73
2019-03-30T01:32:20.176Z,4.97
2019-03-30T01:36:24.377Z,4.70
2019-03-30T01:40:28.615Z,5.47
2019-03-30T01:44:32.798Z,5.20
2019-03-30T01:48:37.115Z,6.37
2019-03-30T01:52:41.423Z,5.03
2019-03-30T01:56:45.999Z,4.60
2019-03-30T02:00:50.646Z,7.40
2019-03-30T02:04:54.796Z,5.77
2019-03-30T02:08:59.074Z,5.97
2019-03-30T02:13:03.425Z,5.60
2019-03-30T02:17:07.701Z,6.17
2019-03-30T02:21:12.276Z,4.80
2019-03-30T02:25:16.600Z,6.20
2019-03-30T02:29:20.949Z,5.67
2019-03-30T02:33:25.104Z,5.73
2019-03-30T02:37:29.454Z,7.20
2019-03-30T02:41:33.837Z,5.50
2019-03-30T02:45:38.353Z,6.33
2019-03-30T02:49:42.629Z,5.67
2019-03-30T02:53:47.054Z,5.93
2019-03-30T02:57:51.391Z,5.10
2019-03-30T03:01:55.844Z,6.10
2019-03-30T03:06:00.332Z,5.67
2019-03-30T03:10:05.267Z,5.33
2019-03-30T03:14:09.530Z,7.17
2019-03-30T03:18:13.773Z,7.70
2019-03-30T03:22:18.231Z,6.77
2019-03-30T03:26:22.392Z,6.10
2019-03-30T03:30:26.682Z,7.87
2019-03-30T03:34:31.013Z,7.47
2019-03-30T03:38:35.310Z,6.80
2019-03-30T03:42:39.626Z,6.83
2019-03-30T03:46:43.982Z,8.37
2019-03-30T03:50:51.018Z,7.03
2019-03-30T03:54:55.709Z,7.20
2019-03-30T04:03:30.440Z,6.00
2019-03-30T04:07:36.405Z,7.13
2019-03-30T04:11:43.082Z,4.77
2019-03-30T04:15:47.405Z,10.57
2019-03-30T04:19:51.795Z,7.10
2019-03-30T04:23:56.153Z,7.50
2019-03-30T04:28:00.749Z,5.83
2019-03-30T04:32:05.013Z,7.87
2019-03-30T04:36:09.200Z,7.80
2019-03-30T04:40:13.779Z,7.17
2019-03-30T04:44:18.129Z,6.43
2019-03-30T04:48:22.374Z,7.77
2019-03-30T04:52:26.625Z,7.33
2019-03-30T04:56:30.890Z,7.37
2019-03-30T05:00:35.341Z,7.17
2019-03-30T05:04:39.640Z,8.23
2019-03-30T05:08:43.805Z,7.70
2019-03-30T05:12:48.064Z,6.70
2019-03-30T05:16:52.225Z,7.03
2019-03-30T05:20:56.377Z,8.40
2019-03-30T05:25:00.818Z,6.33
2019-03-30T05:29:05.113Z,8.47
2019-03-30T05:33:09.436Z,7.73
2019-03-30T05:37:13.783Z,7.90
2019-03-30T05:41:17.959Z,8.70
2019-03-30T05:45:22.166Z,8.17
2019-03-30T05:49:26.397Z,6.63
2019-03-30T05:53:30.774Z,7.37
2019-03-30T05:57:35.094Z,7.97
2019-03-30T06:01:39.371Z,9.13
2019-03-30T06:05:43.814Z,8.00
2019-03-30T06:09:48.006Z,6.47
2019-03-30T06:13:52.268Z,6.83
2019-03-30T06:17:56.561Z,8.57
2019-03-30T06:22:00.872Z,7.93
2019-03-30T06:26:05.238Z,7.70
2019-03-30T06:30:25.408Z,10.43
2019-03-30T06:34:29.649Z,6.80
2019-03-30T06:38:34.014Z,7.93
2019-03-30T06:42:38.450Z,8.23
2019-03-30T06:46:42.850Z,7.93
2019-03-30T06:50:47.245Z,7.40
2019-03-30T06:54:51.477Z,6.70
2019-03-30T06:58:55.789Z,8.70
2019-03-30T07:03:00.593Z,7.83
2019-03-30T07:07:04.937Z,7.93
2019-03-30T07:11:20.716Z,8.80
2019-03-30T07:15:15.462Z,7.90
2019-03-30T07:19:20.381Z,7.07
2019-03-30T07:23:24.634Z,7.10
2019-03-30T07:27:28.911Z,7.40
2019-03-30T07:31:33.236Z,6.67
2019-03-30T07:35:37.543Z,7.17
2019-03-30T07:39:41.908Z,8.97
2019-03-30T07:43:46.270Z,8.90
2019-03-30T07:47:50.913Z,8.17
2019-03-30T07:51:55.190Z,10.07
2019-03-30T07:56:08.342Z,7.80
2019-03-30T08:00:05.554Z,7.13
2019-03-30T08:04:09.919Z,8.03
2019-03-30T08:08:14.276Z,7.45
2019-03-30T08:12:18.580Z,7.50
2019-03-30T08:16:22.919Z,8.75
2019-03-30T08:20:28.354Z,8.93
2019-03-30T08:24:32.657Z,10.58
2019-03-30T08:28:36.987Z,9.10
2019-03-30T08:32:41.417Z,8.33
2019-03-30T08:36:45.930Z,10.63
2019-03-30T08:40:50.264Z,9.83
2019-03-30T08:44:54.641Z,11.25
2019-03-30T08:48:59.059Z,10.38
2019-03-30T08:53:03.473Z,9.30
2019-03-30T08:57:07.922Z,9.75
2019-03-30T09:01:12.325Z,12.65
2019-03-30T09:05:16.712Z,10.20
2019-03-30T09:09:21.021Z,7.33
2019-03-30T09:13:25.433Z,8.98
2019-03-30T09:17:29.791Z,9.40
2019-03-30T09:21:34.338Z,9.40
2019-03-30T09:25:38.729Z,10.78
2019-03-30T09:29:42.967Z,11.57
2019-03-30T09:33:48.324Z,8.90
2019-03-30T09:37:53.807Z,11.30
2019-03-30T09:41:58.068Z,9.30
2019-03-30T09:46:02.470Z,8.80
2019-03-30T09:50:08.249Z,8.70
2019-03-30T09:54:23.213Z,7.60
2019-03-30T09:58:18.698Z,8.78
2019-03-30T10:02:23.144Z,9.53
2019-03-30T10:06:34.348Z,10.38
2019-03-30T10:10:33.688Z,8.50
2019-03-30T10:14:38.040Z,9.38
2019-03-30T10:18:42.417Z,9.40
2019-03-30T10:22:47.745Z,8.13
2019-03-30T10:26:52.129Z,7.58
2019-03-30T10:30:56.542Z,6.70
2019-03-30T10:39:06.702Z,6.78
2019-03-30T10:43:11.197Z,4.28
2019-03-30T10:47:16.704Z,7.85
2019-03-30T10:51:21.102Z,9.00
2019-03-30T10:55:25.575Z,8.65
2019-03-30T10:59:29.947Z,6.47
2019-03-30T11:03:36.077Z,6.50
2019-03-30T11:07:40.549Z,6.97
2019-03-30T11:11:44.895Z,5.85
2019-03-30T11:15:49.289Z,7.33
2019-03-30T11:19:53.734Z,7.83
2019-03-30T11:23:58.172Z,7.22
2019-03-30T11:28:02.665Z,8.08
2019-03-30T11:32:08.069Z,6.25
2019-03-30T11:36:12.358Z,6.45
2019-03-30T11:40:16.864Z,7.17
2019-03-30T11:44:21.306Z,4.67
2019-03-30T11:48:25.658Z,6.22
2019-03-30T11:52:30.049Z,6.55
2019-03-30T11:56:34.412Z,7.95
2019-03-30T12:00:38.819Z,5.28
2019-03-30T12:04:43.079Z,5.65
2019-03-30T12:08:47.667Z,6.53
2019-03-30T12:12:53.210Z,8.75
2019-03-30T12:16:57.696Z,6.37
2019-03-30T12:21:03.301Z,9.25
2019-03-30T12:25:08.065Z,10.08
2019-03-30T12:29:12.524Z,4.87
2019-03-30T12:33:16.995Z,5.75
2019-03-30T12:37:21.372Z,6.17
2019-03-30T12:41:25.835Z,4.92
2019-03-30T12:45:30.269Z,5.97
2019-03-30T12:49:34.713Z,5.50
2019-03-30T12:53:49.652Z,3.77
2019-03-30T12:57:45.273Z,5.92
2019-03-30T13:01:49.818Z,3.52
2019-03-30T13:05:54.417Z,4.30
2019-03-30T13:09:58.887Z,5.50
2019-03-30T13:14:03.366Z,4.55
2019-03-30T13:18:07.712Z,8.45
2019-03-30T13:22:11.952Z,3.65
2019-03-30T13:26:16.302Z,4.70
2019-03-30T13:30:21.003Z,4.47
2019-03-30T13:34:25.584Z,5.37
2019-03-30T13:38:30.007Z,3.02
2019-03-30T13:42:34.417Z,5.40
2019-03-30T13:46:38.869Z,3.80
2019-03-30T13:50:43.216Z,5.75
2019-03-30T13:54:47.622Z,3.40
2019-03-30T13:58:52.077Z,3.30
2019-03-30T14:02:56.427Z,3.80
2019-03-30T14:07:00.851Z,3.27
2019-03-30T14:11:05.458Z,3.72
2019-03-30T14:15:09.872Z,3.15
2019-03-30T14:19:15.421Z,4.80
2019-03-30T14:23:19.748Z,3.58
2019-03-30T14:27:24.200Z,2.95
2019-03-30T14:31:28.601Z,3.40
2019-03-30T14:35:33.014Z,3.35
2019-03-30T14:39:37.458Z,3.40
2019-03-30T14:43:42.027Z,3.70
2019-03-30T14:47:46.512Z,4.33
2019-03-30T14:51:50.925Z,4.50
2019-03-30T14:55:55.332Z,3.95
2019-03-30T14:59:59.791Z,3.62
2019-03-30T15:04:04.181Z,2.92
2019-03-30T15:08:08.715Z,2.50
2019-03-30T15:12:13.064Z,4.42
2019-03-30T15:16:17.522Z,3.92
2019-03-30T15:20:22.295Z,6.35
2019-03-30T15:24:26.661Z,6.60
2019-03-30T15:28:30.950Z,7.78
2019-03-30T15:32:35.195Z,5.70
2019-03-30T15:36:39.619Z,5.83
2019-03-30T15:40:44.228Z,3.83
2019-03-30T15:44:48.629Z,3.58
2019-03-30T15:48:52.993Z,3.33
2019-03-30T15:52:58.844Z,4.45
2019-03-30T15:57:14.078Z,4.35
2019-03-30T16:01:11.257Z,2.87
2019-03-30T16:05:16.036Z,3.58
2019-03-30T16:09:20.566Z,2.92
2019-03-30T16:13:25.006Z,3.90
2019-03-30T16:17:29.597Z,2.85
2019-03-30T16:21:34.098Z,3.95
2019-03-30T16:25:38.558Z,4.05
2019-03-30T16:29:42.971Z,3.08
2019-03-30T16:33:47.464Z,1.85
2019-03-30T16:37:51.947Z,2.60
2019-03-30T16:41:56.504Z,2.08
2019-03-30T16:46:00.938Z,2.67
2019-03-30T16:50:07.150Z,2.60
2019-03-30T16:54:11.648Z,2.62
2019-03-30T16:58:15.981Z,2.52
2019-03-30T17:02:20.263Z,3.33
2019-03-30T17:06:24.807Z,3.22
2019-03-30T17:10:29.680Z,6.03
2019-03-30T17:14:34.557Z,23.38
2019-03-30T17:18:38.909Z,12.58
2019-03-30T17:22:43.384Z,19.75
2019-03-30T17:26:48.444Z,9.50
2019-03-30T17:30:53.609Z,8.78
2019-03-30T17:34:58.082Z,8.40
2019-03-30T17:39:02.650Z,7.22
2019-03-30T17:43:07.448Z,12.37
2019-03-30T17:47:11.892Z,16.77
2019-03-30T17:51:16.702Z,35.20
2019-03-30T17:55:32.989Z,32.17
2019-03-30T17:59:27.286Z,28.87
2019-03-30T18:03:31.681Z,24.00
2019-03-30T18:07:36.252Z,33.23
2019-03-30T18:11:40.825Z,10.70
2019-03-30T18:15:45.232Z,11.00
2019-03-30T18:19:50.824Z,13.80
2019-03-30T18:23:55.152Z,11.93
2019-03-30T18:27:59.499Z,9.20
2019-03-30T18:32:03.858Z,11.18
2019-03-30T18:36:08.452Z,9.05
2019-03-30T18:40:15.941Z,7.53
2019-03-30T18:44:20.742Z,10.20
2019-03-30T18:48:25.108Z,11.73
2019-03-30T18:52:29.738Z,10.20
2019-03-30T18:56:34.216Z,11.15
2019-03-30T19:00:39.599Z,12.15
2019-03-30T19:04:43.957Z,12.78
2019-03-30T19:08:48.408Z,13.40
2019-03-30T19:12:52.753Z,14.30
2019-03-30T19:16:57.129Z,13.88
2019-03-30T19:21:01.576Z,13.00
2019-03-30T19:25:07.126Z,16.02
2019-03-30T19:29:11.703Z,19.98
2019-03-30T19:33:16.068Z,18.65
2019-03-30T19:37:20.566Z,17.40
2019-03-30T19:41:24.905Z,15.28
2019-03-30T19:45:29.749Z,14.63
2019-03-30T19:49:34.233Z,15.35
2019-03-30T19:53:38.701Z,17.87
2019-03-30T19:57:43.298Z,14.15
2019-03-30T20:01:47.656Z,17.92
2019-03-30T20:05:52.090Z,15.43
2019-03-30T20:09:56.488Z,16.67
2019-03-30T20:14:00.950Z,18.87
2019-03-30T20:18:05.310Z,23.03
2019-03-30T20:22:09.654Z,17.47
2019-03-30T20:26:14.485Z,17.73
2019-03-30T20:30:18.824Z,17.07
2019-03-30T20:34:23.334Z,19.07
2019-03-30T20:38:27.702Z,20.73
2019-03-30T20:42:32.207Z,15.50
2019-03-30T20:46:36.568Z,18.00
2019-03-30T20:50:41.134Z,18.87
2019-03-30T20:54:45.483Z,16.65
2019-03-30T20:58:49.970Z,15.83
2019-03-30T21:02:54.336Z,15.93
2019-03-30T21:06:58.754Z,15.60
2019-03-30T21:11:03.324Z,17.87
2019-03-30T21:15:08.725Z,14.50
2019-03-30T21:19:13.198Z,16.30
2019-03-30T21:23:17.542Z,15.40
2019-03-30T21:27:22.862Z,17.77
2019-03-30T21:31:27.369Z,22.73
2019-03-30T21:35:31.725Z,27.07
2019-03-30T21:39:36.172Z,32.83
2019-03-30T21:43:41.461Z,37.83
2019-03-30T21:47:45.747Z,32.87
2019-03-30T21:51:50.138Z,33.60
2019-03-30T21:55:54.543Z,35.40
2019-03-30T22:00:09.769Z,30.93
2019-03-30T22:04:04.932Z,25.93
2019-03-30T22:08:09.514Z,21.12
2019-03-30T22:12:13.865Z,22.10
2019-03-30T22:16:18.161Z,23.60
2019-03-30T22:20:22.562Z,21.77
2019-03-30T22:24:26.901Z,19.80
2019-03-30T22:28:31.176Z,17.73
2019-03-30T22:32:35.517Z,20.90
2019-03-30T22:36:39.697Z,20.23
2019-03-30T22:40:44.202Z,18.63
2019-03-30T22:44:48.612Z,20.37
2019-03-30T22:48:53.131Z,20.93
2019-03-30T22:52:57.560Z,23.80
2019-03-30T22:57:01.834Z,15.30
2019-03-30T23:01:07.955Z,70.80
2019-03-30T23:05:12.422Z,98.47
2019-03-30T23:09:16.892Z,70.33
2019-03-30T23:13:21.153Z,83.93
2019-03-30T23:17:25.658Z,52.50
2019-03-30T23:21:29.896Z,33.57
2019-03-30T23:25:34.226Z,24.57
2019-03-30T23:29:38.682Z,21.53
2019-03-30T23:33:43.234Z,16.47
2019-03-30T23:37:47.774Z,24.23
2019-03-30T23:41:52.124Z,17.67
2019-03-30T23:45:56.399Z,21.13
2019-03-30T23:50:00.890Z,23.47
2019-03-30T23:54:06.912Z,29.87
2019-03-30T23:58:11.319Z,81.73
